createdAt,value
2023-04-24T00:02:17.111Z,100.00
2023-04-24T00:04:45.902Z,100.00
2023-04-24T00:07:13.980Z,99.57
2023-04-24T00:09:40.572Z,99.73
2023-04-24T00:12:07.328Z,99.52
2023-04-24T00:14:33.876Z,99.65
2023-04-24T00:17:00.511Z,100.00
2023-04-24T00:19:27.048Z,99.13
2023-04-24T00:21:53.504Z,99.60
2023-04-24T00:24:19.932Z,99.52
2023-04-24T00:26:46.454Z,99.66
2023-04-24T00:29:12.973Z,100.00
2023-04-24T00:31:39.764Z,100.00
2023-04-24T00:34:06.657Z,100.00
2023-04-24T00:36:33.506Z,100.00
2023-04-24T00:39:00.168Z,100.00
2023-04-24T00:41:26.768Z,100.00
2023-04-24T00:43:53.844Z,100.00
2023-04-24T00:46:20.679Z,100.00
2023-04-24T00:48:47.339Z,100.00
2023-04-24T00:51:13.862Z,100.00
2023-04-24T00:53:40.556Z,100.00
2023-04-24T00:56:07.017Z,100.00
2023-04-24T00:58:33.481Z,100.00
2023-04-24T01:01:01.978Z,100.00
2023-04-24T01:03:32.735Z,100.00
2023-04-24T01:05:59.612Z,100.00
2023-04-24T01:08:27.381Z,100.00
2023-04-24T01:10:54.216Z,100.00
2023-04-24T01:13:21.780Z,100.00
2023-04-24T01:15:48.445Z,100.00
2023-04-24T01:18:15.315Z,100.00
2023-04-24T01:20:43.558Z,100.00
2023-04-24T01:23:10.584Z,100.00
2023-04-24T01:25:37.530Z,100.00
2023-04-24T01:28:04.657Z,100.00
2023-04-24T01:30:32.098Z,100.00
2023-04-24T01:32:59.686Z,100.00
2023-04-24T01:35:26.500Z,100.00
2023-04-24T01:37:53.049Z,100.00
2023-04-24T01:40:19.622Z,100.00
2023-04-24T01:42:46.182Z,100.00
2023-04-24T01:45:13.941Z,100.00
2023-04-24T01:47:40.583Z,100.00
2023-04-24T01:50:07.653Z,100.00
2023-04-24T01:52:34.258Z,100.00
2023-04-24T01:55:01.229Z,100.00
2023-04-24T01:57:27.818Z,100.00
2023-04-24T01:59:54.260Z,100.00
2023-04-24T02:02:22.348Z,100.00
2023-04-24T02:04:48.999Z,100.00
2023-04-24T02:07:15.505Z,100.00
2023-04-24T02:09:42.188Z,100.00
2023-04-24T02:12:08.905Z,100.00
2023-04-24T02:14:35.633Z,100.00
2023-04-24T02:17:03.696Z,100.00
2023-04-24T02:19:30.164Z,100.00
2023-04-24T02:21:56.675Z,100.00
2023-04-24T02:24:23.130Z,100.00
2023-04-24T02:26:49.593Z,100.00
2023-04-24T02:29:16.294Z,100.00
2023-04-24T02:31:42.794Z,100.00
2023-04-24T02:34:09.298Z,100.00
2023-04-24T02:36:35.808Z,100.00
2023-04-24T02:39:02.307Z,100.00
2023-04-24T02:41:33.689Z,100.00
2023-04-24T02:44:00.257Z,100.00
2023-04-24T02:46:27.399Z,100.00
2023-04-24T02:48:53.987Z,100.00
2023-04-24T02:51:20.449Z,100.00
2023-04-24T02:53:47.018Z,100.00
2023-04-24T02:56:13.976Z,100.00
2023-04-24T02:58:40.545Z,100.00
2023-04-24T03:01:07.082Z,100.00
2023-04-24T03:03:33.719Z,100.00
2023-04-24T03:06:00.798Z,100.00
2023-04-24T03:08:27.292Z,100.00
2023-04-24T03:10:53.889Z,100.00
2023-04-24T03:13:20.342Z,100.00
2023-04-24T03:15:47.925Z,100.00
2023-04-24T03:18:14.804Z,100.00
2023-04-24T03:20:41.339Z,100.00
2023-04-24T03:23:08.177Z,100.00
2023-04-24T03:25:35.801Z,100.00
2023-04-24T03:28:03.221Z,100.00
2023-04-24T03:30:40.857Z,100.00
2023-04-24T03:33:08.366Z,100.00
2023-04-24T03:35:38.657Z,100.00
2023-04-24T03:38:09.577Z,100.00
2023-04-24T03:40:54.426Z,100.00
2023-04-24T03:43:40.912Z,100.00
2023-04-24T03:46:10.347Z,100.00
2023-04-24T03:48:41.447Z,100.00
2023-04-24T03:51:09.213Z,100.00
2023-04-24T03:53:37.720Z,100.00
2023-04-24T03:56:04.650Z,100.00
2023-04-24T03:58:32.484Z,100.00
2023-04-24T04:00:59.992Z,100.00
2023-04-24T04:03:35.350Z,100.00
2023-04-24T04:06:02.232Z,100.00
2023-04-24T04:08:28.792Z,100.00
2023-04-24T04:10:55.815Z,100.00
2023-04-24T04:13:23.485Z,100.00
2023-04-24T04:15:50.235Z,100.00
2023-04-24T04:18:16.979Z,100.00
2023-04-24T04:20:43.704Z,100.00
2023-04-24T04:23:12.924Z,100.00
2023-04-24T04:26:04.346Z,100.00
2023-04-24T04:28:45.451Z,100.00
2023-04-24T04:31:12.567Z,100.00
2023-04-24T04:33:40.429Z,100.00
2023-04-24T04:36:08.900Z,100.00
2023-04-24T04:38:40.343Z,100.00
2023-04-24T04:41:17.808Z,100.00
2023-04-24T04:43:44.761Z,100.00
2023-04-24T04:46:12.170Z,100.00
2023-04-24T04:49:02.344Z,100.00
2023-04-24T04:51:29.259Z,100.00
2023-04-24T04:53:55.983Z,100.00
2023-04-24T04:56:23.341Z,100.00
2023-04-24T04:58:50.192Z,100.00
2023-04-24T05:01:18.424Z,100.00
2023-04-24T05:03:47.554Z,100.00
2023-04-24T05:06:16.368Z,100.00
2023-04-24T05:08:46.015Z,100.00
2023-04-24T05:11:23.877Z,100.00
2023-04-24T05:13:50.548Z,100.00
2023-04-24T05:16:22.636Z,100.00
2023-04-24T05:18:51.483Z,100.00
2023-04-24T05:21:22.116Z,100.00
2023-04-24T05:23:51.481Z,100.00
2023-04-24T05:26:27.082Z,100.00
2023-04-24T05:28:56.013Z,100.00
2023-04-24T05:31:22.538Z,100.00
2023-04-24T05:33:50.297Z,100.00
2023-04-24T05:36:16.812Z,100.00
2023-04-24T05:38:43.460Z,100.00
2023-04-24T05:41:09.983Z,100.00
2023-04-24T05:43:36.437Z,100.00
2023-04-24T05:46:03.020Z,100.00
2023-04-24T05:48:29.589Z,100.00
2023-04-24T05:50:56.160Z,100.00
2023-04-24T05:53:23.944Z,100.00
2023-04-24T05:55:50.697Z,100.00
2023-04-24T05:58:17.316Z,100.00
2023-04-24T06:00:47.761Z,98.79
2023-04-24T06:03:14.631Z,97.74
2023-04-24T06:05:41.456Z,96.51
2023-04-24T06:08:08.378Z,97.03
2023-04-24T06:10:38.752Z,97.03
2023-04-24T06:13:07.656Z,95.92
2023-04-24T06:15:36.587Z,95.34
2023-04-24T06:18:08.688Z,94.63
2023-04-24T06:20:36.467Z,91.29
2023-04-24T06:23:03.019Z,90.61
2023-04-24T06:25:29.717Z,91.74
2023-04-24T06:27:56.732Z,91.55
2023-04-24T06:30:23.451Z,90.00
2023-04-24T06:32:49.960Z,88.25
2023-04-24T06:35:16.430Z,90.20
2023-04-24T06:37:43.589Z,88.91
2023-04-24T06:40:10.422Z,87.66
2023-04-24T06:42:37.464Z,87.53
2023-04-24T06:45:04.631Z,88.65
2023-04-24T06:47:31.163Z,88.25
2023-04-24T06:49:58.070Z,85.91
2023-04-24T06:52:24.514Z,88.75
2023-04-24T06:54:51.015Z,83.00
2023-04-24T06:57:18.281Z,85.93
2023-04-24T06:59:45.090Z,89.98
2023-04-24T07:02:11.822Z,90.41
2023-04-24T07:04:38.476Z,89.81
2023-04-24T07:07:05.630Z,89.81
2023-04-24T07:09:32.865Z,91.22
2023-04-24T07:11:59.468Z,93.25
2023-04-24T07:14:26.429Z,94.51
2023-04-24T07:16:53.041Z,94.90
2023-04-24T07:19:19.512Z,93.91
2023-04-24T07:21:46.354Z,95.49
2023-04-24T07:24:13.870Z,93.93
2023-04-24T07:26:41.184Z,95.10
2023-04-24T07:29:07.942Z,98.15
2023-04-24T07:31:34.713Z,99.30
2023-04-24T07:34:01.244Z,99.71
2023-04-24T07:36:28.987Z,100.00
2023-04-24T07:38:56.708Z,100.00
2023-04-24T07:41:25.104Z,99.71
2023-04-24T07:43:51.972Z,99.16
2023-04-24T07:46:18.589Z,100.00
2023-04-24T07:48:45.160Z,100.00
2023-04-24T07:51:14.263Z,100.00
2023-04-24T07:53:41.098Z,100.00
2023-04-24T07:56:07.756Z,100.00
2023-04-24T07:58:34.470Z,100.00
2023-04-24T08:01:00.978Z,100.00
2023-04-24T08:03:27.580Z,100.00
2023-04-24T08:05:54.205Z,100.00
2023-04-24T08:08:22.677Z,100.00
2023-04-24T08:10:49.259Z,100.00
2023-04-24T08:13:15.845Z,100.00
2023-04-24T08:15:42.352Z,100.00
2023-04-24T08:18:08.918Z,100.00
2023-04-24T08:20:35.569Z,100.00
2023-04-24T08:23:02.076Z,100.00
2023-04-24T08:25:28.509Z,100.00
2023-04-24T08:27:55.473Z,100.00
2023-04-24T08:30:22.003Z,100.00
2023-04-24T08:32:48.758Z,100.00
2023-04-24T08:35:15.312Z,100.00
2023-04-24T08:37:41.940Z,100.00
2023-04-24T08:40:14.265Z,100.00
2023-04-24T08:42:45.235Z,100.00
2023-04-24T08:45:12.765Z,100.00
2023-04-24T08:47:40.642Z,100.00
2023-04-24T08:50:08.164Z,100.00
2023-04-24T08:52:35.483Z,99.96
2023-04-24T08:55:02.695Z,99.80
2023-04-24T08:57:30.135Z,99.64
2023-04-24T08:59:57.469Z,100.00
2023-04-24T09:02:24.642Z,100.00
2023-04-24T09:04:52.124Z,100.00
2023-04-24T09:07:20.466Z,100.00
2023-04-24T09:09:47.415Z,100.00
2023-04-24T09:12:14.024Z,100.00
2023-04-24T09:14:43.667Z,100.00
2023-04-24T09:17:10.314Z,100.00
2023-04-24T09:19:36.886Z,100.00
2023-04-24T09:22:07.627Z,100.00
2023-04-24T09:24:34.605Z,100.00
2023-04-24T09:27:05.030Z,100.00
2023-04-24T09:29:32.847Z,100.00
2023-04-24T09:31:59.789Z,100.00
2023-04-24T09:34:27.192Z,99.65
2023-04-24T09:36:54.478Z,99.66
2023-04-24T09:39:21.201Z,97.33
2023-04-24T09:41:47.739Z,94.10
2023-04-24T09:44:15.498Z,92.96
2023-04-24T09:46:42.820Z,89.59
2023-04-24T09:49:17.180Z,91.88
2023-04-24T09:51:44.075Z,91.78
2023-04-24T09:54:18.218Z,91.20
2023-04-24T09:56:46.318Z,90.56
2023-04-24T09:59:13.627Z,85.81
2023-04-24T10:01:43.448Z,82.20
2023-04-24T10:04:18.056Z,85.16
2023-04-24T10:06:44.980Z,85.79
2023-04-24T10:09:14.848Z,85.87
2023-04-24T10:11:46.164Z,85.32
2023-04-24T10:14:17.148Z,84.77
2023-04-24T10:16:44.587Z,83.94
2023-04-24T10:19:12.027Z,83.38
2023-04-24T10:21:43.187Z,84.53
2023-04-24T10:24:10.076Z,85.50
2023-04-24T10:26:37.622Z,84.12
2023-04-24T10:29:05.993Z,81.85
2023-04-24T10:31:33.723Z,81.34
2023-04-24T10:34:00.948Z,81.75
2023-04-24T10:36:29.195Z,82.40
2023-04-24T10:38:57.527Z,82.95
2023-04-24T10:41:26.605Z,84.73
2023-04-24T10:44:06.651Z,83.36
2023-04-24T10:46:33.260Z,83.91
2023-04-24T10:48:59.904Z,83.72
2023-04-24T10:51:46.136Z,80.50
2023-04-24T10:54:29.745Z,80.88
2023-04-24T10:57:15.243Z,82.37
2023-04-24T10:59:42.080Z,79.44
2023-04-24T11:02:09.488Z,77.01
2023-04-24T11:04:36.407Z,77.27
2023-04-24T11:07:06.464Z,76.34
2023-04-24T11:09:34.032Z,75.78
2023-04-24T11:12:13.725Z,72.12
2023-04-24T11:14:59.212Z,75.41
2023-04-24T11:17:33.149Z,72.07
2023-04-24T11:20:26.665Z,73.90
2023-04-24T11:22:58.849Z,68.07
2023-04-24T11:25:26.116Z,69.09
2023-04-24T11:28:03.476Z,66.45
2023-04-24T11:30:30.427Z,67.46
2023-04-24T11:33:02.770Z,70.39
2023-04-24T11:35:31.488Z,65.99
2023-04-24T11:40:27.566Z,63.86
2023-04-24T11:42:56.494Z,63.13
2023-04-24T11:45:24.713Z,61.64
2023-04-24T11:47:51.785Z,61.50
2023-04-24T11:50:19.749Z,60.64
2023-04-24T11:52:50.242Z,63.06
2023-04-24T11:55:16.810Z,62.34
2023-04-24T11:57:45.449Z,61.44
2023-04-24T12:00:22.664Z,63.12
2023-04-24T12:02:50.351Z,63.04
2023-04-24T12:05:20.772Z,61.96
2023-04-24T12:07:47.415Z,61.56
2023-04-24T12:10:13.973Z,63.59
2023-04-24T12:12:40.444Z,60.40
2023-04-24T12:15:10.338Z,59.94
2023-04-24T12:17:39.837Z,60.88
2023-04-24T12:20:08.038Z,59.76
2023-04-24T12:22:47.639Z,60.92
2023-04-24T12:25:14.716Z,58.53
2023-04-24T12:27:41.368Z,58.50
2023-04-24T12:30:11.900Z,57.33
2023-04-24T12:32:41.928Z,55.26
2023-04-24T12:35:08.554Z,55.34
2023-04-24T12:37:35.065Z,54.78
2023-04-24T12:40:08.850Z,54.57
2023-04-24T12:42:36.132Z,54.64
2023-04-24T12:45:07.043Z,56.11
2023-04-24T12:47:34.269Z,54.87
2023-04-24T12:50:01.028Z,55.49
2023-04-24T12:52:28.210Z,56.89
2023-04-24T12:54:56.052Z,55.32
2023-04-24T12:57:22.937Z,53.70
2023-04-24T12:59:49.452Z,56.32
2023-04-24T13:02:18.613Z,53.64
2023-04-24T13:04:47.116Z,54.10
2023-04-24T13:07:14.959Z,52.93
2023-04-24T13:09:42.081Z,52.84
2023-04-24T13:12:08.908Z,53.57
2023-04-24T13:14:35.643Z,54.62
2023-04-24T13:17:02.178Z,55.03
2023-04-24T13:19:28.778Z,56.05
2023-04-24T13:21:56.669Z,58.49
2023-04-24T13:24:25.540Z,59.40
2023-04-24T13:26:52.325Z,58.37
2023-04-24T13:29:18.872Z,56.22
2023-04-24T13:31:45.676Z,58.48
2023-04-24T13:34:12.185Z,58.91
2023-04-24T13:36:38.756Z,58.34
2023-04-24T13:39:06.265Z,56.71
2023-04-24T13:41:33.709Z,58.22
2023-04-24T13:44:00.190Z,58.57
2023-04-24T13:46:26.694Z,61.19
2023-04-24T13:48:53.567Z,61.04
2023-04-24T13:51:20.039Z,61.80
2023-04-24T13:53:46.589Z,61.16
2023-04-24T13:56:14.716Z,61.67
2023-04-24T13:58:41.422Z,61.35
2023-04-24T14:01:07.966Z,60.90
2023-04-24T14:03:34.927Z,62.93
2023-04-24T14:06:01.553Z,63.87
2023-04-24T14:08:28.024Z,66.17
2023-04-24T14:10:54.560Z,65.76
2023-04-24T14:13:21.195Z,63.93
2023-04-24T14:15:47.829Z,65.21
2023-04-24T14:18:16.274Z,66.97
2023-04-24T14:20:42.776Z,66.81
2023-04-24T14:23:09.460Z,64.40
2023-04-24T14:25:36.008Z,66.20
2023-04-24T14:28:02.446Z,65.86
2023-04-24T14:30:28.965Z,65.46
2023-04-24T14:32:55.482Z,63.68
2023-04-24T14:35:22.880Z,62.61
2023-04-24T14:37:50.095Z,64.92
2023-04-24T14:42:47.420Z,67.05
2023-04-24T14:45:13.960Z,67.96
2023-04-24T14:47:40.504Z,69.56
2023-04-24T14:50:09.083Z,70.01
2023-04-24T14:52:36.729Z,69.51
2023-04-24T14:55:03.340Z,69.65
2023-04-24T14:57:30.044Z,68.89
2023-04-24T14:59:56.499Z,69.74
2023-04-24T15:02:23.142Z,71.31
2023-04-24T15:04:49.896Z,72.07
2023-04-24T15:07:16.479Z,73.44
2023-04-24T15:09:44.005Z,75.23
2023-04-24T15:12:10.944Z,74.55
2023-04-24T15:14:37.659Z,76.25
2023-04-24T15:17:04.190Z,77.39
2023-04-24T15:19:30.721Z,78.57
2023-04-24T15:21:57.209Z,79.10
2023-04-24T15:24:23.654Z,80.22
2023-04-24T15:26:50.153Z,79.56
2023-04-24T15:29:16.669Z,80.01
2023-04-24T15:31:43.143Z,79.28
2023-04-24T15:34:09.843Z,80.57
2023-04-24T15:36:36.358Z,81.86
2023-04-24T15:39:04.799Z,83.37
2023-04-24T15:41:32.782Z,83.78
2023-04-24T15:43:59.242Z,84.02
2023-04-24T15:46:26.246Z,84.95
2023-04-24T15:48:53.064Z,86.52
2023-04-24T15:51:19.586Z,87.96
2023-04-24T15:53:47.005Z,88.43
2023-04-24T15:56:13.839Z,76.87
2023-04-24T15:58:40.619Z,78.63
2023-04-24T16:01:07.139Z,80.74
2023-04-24T16:03:33.907Z,82.89
2023-04-24T16:06:00.752Z,82.79
2023-04-24T16:08:27.224Z,82.28
2023-04-24T16:10:53.671Z,80.32
2023-04-24T16:13:20.454Z,80.43
2023-04-24T16:15:47.032Z,83.20
2023-04-24T16:18:13.595Z,83.63
2023-04-24T16:20:40.078Z,84.08
2023-04-24T16:23:06.647Z,84.12
2023-04-24T16:25:33.079Z,84.98
2023-04-24T16:27:59.841Z,83.67
2023-04-24T16:30:26.730Z,86.29
2023-04-24T16:32:53.501Z,89.51
2023-04-24T16:35:20.049Z,93.44
2023-04-24T16:37:46.538Z,94.29
2023-04-24T16:40:12.984Z,92.37
2023-04-24T16:42:39.763Z,91.37
2023-04-24T16:45:06.802Z,93.68
2023-04-24T16:47:33.325Z,91.49
2023-04-24T16:49:59.767Z,94.85
2023-04-24T16:52:26.269Z,94.68
2023-04-24T16:54:52.698Z,93.79
2023-04-24T16:57:19.187Z,93.83
2023-04-24T16:59:45.624Z,93.02
2023-04-24T17:02:12.181Z,93.44
2023-04-24T17:04:38.786Z,96.04
2023-04-24T17:07:05.276Z,97.44
2023-04-24T17:09:31.773Z,97.56
2023-04-24T17:11:58.297Z,98.63
2023-04-24T17:14:26.388Z,99.80
2023-04-24T17:16:53.518Z,100.00
2023-04-24T17:19:20.111Z,100.00
2023-04-24T17:21:46.548Z,100.00
2023-04-24T17:24:13.025Z,100.00
2023-04-24T17:26:39.517Z,100.00
2023-04-24T17:29:06.170Z,100.00
2023-04-24T17:31:32.727Z,100.00
2023-04-24T17:33:59.670Z,100.00
2023-04-24T17:36:26.174Z,100.00
2023-04-24T17:38:52.704Z,100.00
2023-04-24T17:41:19.215Z,96.80
2023-04-24T17:43:45.816Z,97.98
2023-04-24T17:46:12.923Z,99.27
2023-04-24T17:48:39.480Z,99.36
2023-04-24T17:51:05.954Z,100.00
2023-04-24T17:53:32.389Z,99.45
2023-04-24T17:56:01.944Z,98.87
2023-04-24T17:58:28.929Z,100.00
2023-04-24T18:00:55.507Z,100.00
2023-04-24T18:03:22.058Z,100.00
2023-04-24T18:05:48.685Z,100.00
2023-04-24T18:08:15.217Z,100.00
2023-04-24T18:13:09.847Z,100.00
2023-04-24T18:15:36.327Z,99.28
2023-04-24T18:18:03.201Z,98.86
2023-04-24T18:20:30.904Z,100.00
2023-04-24T18:22:57.350Z,100.00
2023-04-24T18:25:26.978Z,100.00
2023-04-24T18:27:54.618Z,100.00
2023-04-24T18:30:22.000Z,100.00
2023-04-24T18:32:49.518Z,100.00
2023-04-24T18:35:16.686Z,100.00
2023-04-24T18:37:45.322Z,100.00
2023-04-24T18:40:12.637Z,100.00
2023-04-24T18:42:39.727Z,100.00
2023-04-24T18:45:06.557Z,100.00
2023-04-24T18:47:33.063Z,100.00
2023-04-24T18:49:59.597Z,100.00
2023-04-24T18:52:26.447Z,100.00
2023-04-24T18:54:52.950Z,100.00
2023-04-24T18:57:19.726Z,100.00
2023-04-24T18:59:46.163Z,100.00
2023-04-24T19:02:12.742Z,100.00
2023-04-24T19:04:39.391Z,100.00
2023-04-24T19:07:05.920Z,100.00
2023-04-24T19:09:32.534Z,100.00
2023-04-24T19:12:00.131Z,100.00
2023-04-24T19:14:26.736Z,100.00
2023-04-24T19:16:53.272Z,100.00
2023-04-24T19:19:19.835Z,100.00
2023-04-24T19:21:47.435Z,100.00
2023-04-24T19:24:14.098Z,100.00
2023-04-24T19:26:40.588Z,100.00
2023-04-24T19:29:07.055Z,100.00
2023-04-24T19:31:33.590Z,100.00
2023-04-24T19:34:00.034Z,100.00
2023-04-24T19:36:26.924Z,100.00
2023-04-24T19:38:53.434Z,100.00
2023-04-24T19:41:19.899Z,100.00
2023-04-24T19:43:48.023Z,100.00
2023-04-24T19:46:14.654Z,100.00
2023-04-24T19:48:41.168Z,100.00
2023-04-24T19:51:07.610Z,100.00
2023-04-24T19:53:34.112Z,100.00
2023-04-24T19:56:00.573Z,100.00
2023-04-24T19:58:27.039Z,100.00
2023-04-24T20:00:53.477Z,100.00
2023-04-24T20:03:32.185Z,100.00
2023-04-24T20:06:00.257Z,100.00
2023-04-24T20:08:26.903Z,100.00
2023-04-24T20:10:54.385Z,100.00
2023-04-24T20:13:21.037Z,100.00
2023-04-24T20:15:47.605Z,100.00
2023-04-24T20:18:14.165Z,100.00
2023-04-24T20:20:41.644Z,100.00
2023-04-24T20:23:08.430Z,100.00
2023-04-24T20:25:36.116Z,100.00
2023-04-24T20:28:02.789Z,100.00
2023-04-24T20:30:31.481Z,100.00
2023-04-24T20:32:58.466Z,100.00
2023-04-24T20:35:25.196Z,100.00
2023-04-24T20:37:53.622Z,100.00
2023-04-24T20:40:20.192Z,100.00
2023-04-24T20:42:46.672Z,100.00
2023-04-24T20:45:13.185Z,100.00
2023-04-24T20:47:39.676Z,100.00
2023-04-24T20:50:07.087Z,100.00
2023-04-24T20:52:33.563Z,100.00
2023-04-24T20:55:00.062Z,100.00
2023-04-24T20:57:26.602Z,100.00
2023-04-24T20:59:53.021Z,100.00
2023-04-24T21:02:19.562Z,100.00
2023-04-24T21:04:46.095Z,100.00
2023-04-24T21:07:13.744Z,100.00
2023-04-24T21:09:40.298Z,100.00
2023-04-24T21:12:06.904Z,100.00
2023-04-24T21:14:33.334Z,100.00
2023-04-24T21:17:00.106Z,100.00
2023-04-24T21:19:26.838Z,100.00
2023-04-24T21:21:53.302Z,100.00
2023-04-24T21:24:19.741Z,100.00
2023-04-24T21:26:46.692Z,100.00
2023-04-24T21:29:13.414Z,100.00
2023-04-24T21:31:39.875Z,100.00
2023-04-24T21:34:06.353Z,100.00
2023-04-24T21:36:33.630Z,100.00
2023-04-24T21:39:00.056Z,100.00
2023-04-24T21:41:26.681Z,100.00
2023-04-24T21:43:53.295Z,100.00
2023-04-24T21:46:20.144Z,100.00
2023-04-24T21:48:46.705Z,100.00
2023-04-24T21:51:13.228Z,100.00
2023-04-24T21:53:39.750Z,100.00
2023-04-24T21:56:06.390Z,100.00
2023-04-24T21:58:32.930Z,100.00
2023-04-24T22:00:59.433Z,100.00
2023-04-24T22:03:26.036Z,100.00
2023-04-24T22:05:52.637Z,100.00
2023-04-24T22:08:19.111Z,100.00
2023-04-24T22:10:46.032Z,100.00
2023-04-24T22:13:12.505Z,100.00
2023-04-24T22:15:39.006Z,100.00
2023-04-24T22:18:06.548Z,100.00
2023-04-24T22:20:36.044Z,100.00
2023-04-24T22:23:02.509Z,100.00
2023-04-24T22:25:29.177Z,100.00
2023-04-24T22:27:55.787Z,100.00
2023-04-24T22:30:22.366Z,100.00
2023-04-24T22:32:48.965Z,100.00
2023-04-24T22:35:16.061Z,100.00
2023-04-24T22:37:42.651Z,100.00
2023-04-24T22:40:11.246Z,100.00
2023-04-24T22:42:38.191Z,100.00
2023-04-24T22:45:05.089Z,100.00
2023-04-24T22:47:31.724Z,100.00
2023-04-24T22:49:59.291Z,100.00
2023-04-24T22:52:28.733Z,100.00
2023-04-24T22:54:55.360Z,100.00
2023-04-24T22:57:21.850Z,100.00
2023-04-24T22:59:48.376Z,100.00
2023-04-24T23:02:15.786Z,100.00
2023-04-24T23:04:42.343Z,100.00
2023-04-24T23:07:08.800Z,100.00
2023-04-24T23:09:35.312Z,100.00
2023-04-24T23:12:02.180Z,100.00
2023-04-24T23:14:29.753Z,100.00
2023-04-24T23:16:56.353Z,100.00
2023-04-24T23:19:22.916Z,100.00
2023-04-24T23:21:49.733Z,100.00
2023-04-24T23:24:16.367Z,100.00
2023-04-24T23:26:42.817Z,100.00
2023-04-24T23:29:09.281Z,100.00
2023-04-24T23:31:35.750Z,100.00
2023-04-24T23:34:02.359Z,99.71
2023-04-24T23:36:29.030Z,99.99
2023-04-24T23:38:55.760Z,100.00
2023-04-24T23:41:22.233Z,99.52
2023-04-24T23:43:48.885Z,99.48
2023-04-24T23:46:15.717Z,100.00
2023-04-24T23:48:42.283Z,100.00
2023-04-24T23:51:08.786Z,100.00
2023-04-24T23:53:35.247Z,100.00
2023-04-24T23:56:01.729Z,100.00
2023-04-24T23:58:28.149Z,100.00
